Time;durP1;ratioP1;P1;durP2;ratioP2;P2;SDS_P1;SDS_P2;PMS_P1;PMS_P2;Temp;Humidity;BMP_temperature;BMP_pressure;BME280_temperature;BME280_humidity;BME280_pressure;Samples;Min_cycle;Max_cycle;Signal;HPM_P1;HPM_P2
2023/07/18 00:00:51;;;;;;;4.28;1.80;;;17.00;1.00;;;;;;6235435;23;20185;-96
2023/07/18 00:03:19;;;;;;;4.45;2.03;;;16.90;1.00;;;;;;6228230;23;20161;-96
2023/07/18 00:05:46;;;;;;;3.25;2.05;;;16.90;1.00;;;;;;6230127;23;20205;-96
2023/07/18 00:08:15;;;;;;;3.58;2.00;;;16.70;1.00;;;;;;6233554;23;20163;-96
2023/07/18 00:10:42;;;;;;;3.53;1.88;;;16.70;1.00;;;;;;6242629;23;20174;-96
2023/07/18 00:13:12;;;;;;;4.13;1.73;;;16.60;1.00;;;;;;6241554;23;20168;-96
2023/07/18 00:15:40;;;;;;;4.20;1.95;;;16.50;1.00;;;;;;6242732;23;20172;-96
2023/07/18 00:18:08;;;;;;;3.13;1.98;;;16.40;16.20;;;;;;6241296;23;20169;-96
2023/07/18 00:20:35;;;;;;;2.67;1.70;;;16.40;18.20;;;;;;6240228;23;20228;-96
2023/07/18 00:23:02;;;;;;;4.53;2.10;;;16.30;20.60;;;;;;6241226;22;20205;-95
2023/07/18 00:25:29;;;;;;;4.50;1.70;;;16.20;25.60;;;;;;6240148;23;20200;-96
2023/07/18 00:27:56;;;;;;;3.88;2.03;;;16.20;28.80;;;;;;6235850;23;20165;-94
2023/07/18 00:30:23;;;;;;;4.13;2.00;;;16.10;67.30;;;;;;6234389;23;20168;-96
2023/07/18 00:32:52;;;;;;;2.78;1.77;;;16.00;90.10;;;;;;6232429;23;20251;-95
2023/07/18 00:35:19;;;;;;;4.55;1.70;;;16.00;99.90;;;;;;6230728;23;20620;-96
2023/07/18 00:37:47;;;;;;;2.92;1.80;;;15.90;99.90;;;;;;6229409;23;20179;-96
2023/07/18 00:40:15;;;;;;;2.72;1.77;;;15.80;99.90;;;;;;6233911;23;20213;-95
2023/07/18 00:42:43;;;;;;;2.75;1.63;;;15.80;99.90;;;;;;6234221;23;20225;-95
2023/07/18 00:45:10;;;;;;;2.88;1.75;;;15.70;99.90;;;;;;6241326;23;20159;-96
2023/07/18 00:47:44;;;;;;;2.60;1.70;;;15.60;99.90;;;;;;6242096;23;20177;-95
2023/07/18 00:50:15;;;;;;;3.30;1.60;;;15.60;99.90;;;;;;6238089;23;20159;-96
2023/07/18 00:52:44;;;;;;;2.95;1.90;;;15.50;99.90;;;;;;6237008;23;20189;-95
2023/07/18 00:55:13;;;;;;;4.03;1.60;;;15.50;99.90;;;;;;6238781;23;20176;-96
2023/07/18 00:57:41;;;;;;;2.05;1.42;;;15.40;99.90;;;;;;6239228;23;20168;-96
2023/07/18 01:00:11;;;;;;;3.20;1.73;;;15.30;99.90;;;;;;6240660;23;20171;-95
2023/07/18 01:02:40;;;;;;;2.47;1.50;;;15.30;99.90;;;;;;6240182;23;20162;-95
2023/07/18 01:05:09;;;;;;;4.37;1.60;;;15.20;99.90;;;;;;6238065;23;20175;-94
2023/07/18 01:07:38;;;;;;;3.23;1.43;;;15.20;99.90;;;;;;6241871;23;20213;-96
2023/07/18 01:10:16;;;;;;;2.97;2.00;;;15.20;99.90;;;;;;6239741;23;20171;-96
2023/07/18 01:12:46;;;;;;;2.37;1.73;;;15.10;99.90;;;;;;6239228;23;20167;-96
2023/07/18 01:15:13;;;;;;;2.80;1.40;;;15.10;99.90;;;;;;6239397;23;20224;-96
2023/07/18 01:17:47;;;;;;;3.90;1.67;;;15.10;99.90;;;;;;6240023;23;20200;-96
2023/07/18 01:20:18;;;;;;;2.70;1.60;;;15.00;99.90;;;;;;6241784;23;20187;-96
2023/07/18 01:22:48;;;;;;;1.90;1.63;;;15.00;99.90;;;;;;6239193;23;20186;-96
2023/07/18 01:25:16;;;;;;;3.53;1.70;;;14.90;1.00;;;;;;6231319;23;20165;-96
2023/07/18 01:27:43;;;;;;;2.13;1.57;;;14.90;1.00;;;;;;6222010;23;20168;-96
2023/07/18 01:30:11;;;;;;;3.63;1.90;;;14.80;1.00;;;;;;6222021;23;20645;-94
2023/07/18 01:32:38;;;;;;;3.30;1.60;;;14.80;1.00;;;;;;6221358;23;20200;-95
2023/07/18 01:35:08;;;;;;;3.53;1.40;;;14.80;1.00;;;;;;6219493;23;20173;-95
2023/07/18 01:37:37;;;;;;;4.10;1.50;;;14.80;1.00;;;;;;6223280;23;20175;-95
2023/07/18 01:40:08;;;;;;;2.90;1.37;;;14.80;1.00;;;;;;6230407;23;20498;-94
2023/07/18 01:42:35;;;;;;;2.97;1.40;;;14.80;1.00;;;;;;6225178;23;20231;-96
2023/07/18 01:45:03;;;;;;;2.40;1.40;;;14.80;1.00;;;;;;6224079;23;20252;-95
2023/07/18 01:47:31;;;;;;;3.88;1.90;;;14.80;1.00;;;;;;6223628;23;20184;-94
2023/07/18 01:49:58;;;;;;;1.70;1.23;;;14.80;1.00;;;;;;6225354;23;20170;-96
2023/07/18 01:52:27;;;;;;;2.93;1.50;;;14.90;1.00;;;;;;6223755;23;20175;-96
2023/07/18 01:54:58;;;;;;;3.30;1.60;;;14.90;99.90;;;;;;6224100;23;20692;-96
2023/07/18 01:57:26;;;;;;;4.77;1.50;;;14.90;99.90;;;;;;6222973;23;20656;-95
2023/07/18 01:59:54;;;;;;;2.70;1.40;;;14.90;99.90;;;;;;6221167;23;20190;-95
2023/07/18 02:02:21;;;;;;;2.67;1.67;;;14.80;99.90;;;;;;6219724;23;20179;-94
2023/07/18 02:04:49;;;;;;;3.63;1.83;;;14.80;1.00;;;;;;6220816;23;20184;-94
2023/07/18 02:07:15;;;;;;;2.77;1.60;;;14.70;1.00;;;;;;6219561;23;20179;-94
2023/07/18 02:09:42;;;;;;;2.60;1.53;;;14.60;1.00;;;;;;6218701;23;20211;-95
2023/07/18 02:12:10;;;;;;;2.60;1.73;;;14.60;1.00;;;;;;6218364;23;20208;-94
2023/07/18 02:14:38;;;;;;;5.13;1.97;;;14.50;1.00;;;;;;6219168;23;20184;-95
2023/07/18 02:17:08;;;;;;;4.23;2.00;;;14.50;1.00;;;;;;6219431;23;20175;-94
2023/07/18 02:19:35;;;;;;;4.47;1.80;;;14.40;1.00;;;;;;6220491;23;20201;-95
2023/07/18 02:22:01;;;;;;;2.37;2.00;;;14.40;1.00;;;;;;6220579;23;20188;-95
2023/07/18 02:24:28;;;;;;;2.63;1.93;;;14.30;1.00;;;;;;6219621;23;20202;-95
2023/07/18 02:26:55;;;;;;;3.27;1.60;;;14.30;1.00;;;;;;6219752;23;20165;-94
2023/07/18 02:29:22;;;;;;;2.40;1.80;;;14.30;1.00;;;;;;6219974;23;20176;-94
2023/07/18 02:31:51;;;;;;;2.83;1.90;;;14.20;1.00;;;;;;6218420;23;20163;-95
2023/07/18 02:34:18;;;;;;;2.33;1.87;;;14.10;1.00;;;;;;6219847;23;20210;-95
2023/07/18 02:36:45;;;;;;;3.87;1.87;;;14.10;1.00;;;;;;6219465;23;20172;-93
2023/07/18 02:39:12;;;;;;;3.47;2.00;;;;;;;;;;6219381;23;20631;-94
2023/07/18 02:41:39;;;;;;;3.37;2.10;;;14.10;1.00;;;;;;6218257;23;20664;-95
2023/07/18 02:44:06;;;;;;;3.10;1.90;;;14.10;1.00;;;;;;6216986;23;20720;-95
2023/07/18 02:46:33;;;;;;;4.43;2.00;;;14.10;1.00;;;;;;6218037;23;20194;-94
2023/07/18 02:49:02;;;;;;;3.70;1.80;;;14.10;1.00;;;;;;6217489;23;20200;-95
2023/07/18 02:51:28;;;;;;;2.67;1.67;;;14.00;1.00;;;;;;6217426;23;20656;-94
2023/07/18 02:53:55;;;;;;;3.93;1.73;;;14.00;99.90;;;;;;6218040;23;20622;-94
2023/07/18 02:56:22;;;;;;;3.83;1.90;;;13.90;99.90;;;;;;6218194;23;20629;-93
2023/07/18 02:58:49;;;;;;;3.13;1.90;;;13.80;99.90;;;;;;6216999;23;20168;-94
2023/07/18 03:01:18;;;;;;;2.90;1.90;;;13.90;99.90;;;;;;6217617;23;20203;-94
2023/07/18 03:03:45;;;;;;;4.67;2.33;;;13.90;99.90;;;;;;6217692;23;20171;-94
2023/07/18 03:06:15;;;;;;;3.63;2.63;;;13.90;99.90;;;;;;6217547;23;20201;-95
2023/07/18 03:08:42;;;;;;;3.07;1.83;;;14.00;99.90;;;;;;6218354;23;20175;-94
2023/07/18 03:11:09;;;;;;;3.00;1.67;;;14.00;99.90;;;;;;6218122;23;20172;-93
2023/07/18 03:13:37;;;;;;;3.40;1.80;;;14.00;99.90;;;;;;6218471;23;20535;-95
2023/07/18 03:16:04;;;;;;;3.83;2.00;;;14.00;99.90;;;;;;6218392;23;20172;-93
2023/07/18 03:18:32;;;;;;;3.60;1.80;;;14.10;99.90;;;;;;6219519;23;20175;-95
2023/07/18 03:20:59;;;;;;;2.40;1.80;;;14.10;99.90;;;;;;6219950;23;20163;-95
2023/07/18 03:23:28;;;;;;;3.03;1.80;;;14.10;99.90;;;;;;6220798;23;20195;-96
2023/07/18 03:25:55;;;;;;;2.90;1.90;;;14.20;99.90;;;;;;6221114;23;20225;-94
2023/07/18 03:28:22;;;;;;;4.20;1.83;;;14.20;99.90;;;;;;6220623;23;20174;-96
2023/07/18 03:30:49;;;;;;;4.93;2.07;;;14.20;99.90;;;;;;6221306;23;20192;-96
2023/07/18 03:33:16;;;;;;;2.80;1.83;;;14.30;99.90;;;;;;6220057;23;20170;-95
2023/07/18 03:35:43;;;;;;;3.77;1.80;;;14.30;99.90;;;;;;6219041;23;20176;-95
2023/07/18 03:38:10;;;;;;;3.07;1.90;;;14.40;99.90;;;;;;6219646;23;20257;-94
2023/07/18 03:40:38;;;;;;;4.30;1.80;;;14.40;99.90;;;;;;6218820;23;20192;-95
2023/07/18 03:43:05;;;;;;;2.53;1.90;;;14.40;99.90;;;;;;6219651;23;20190;-95
2023/07/18 03:45:32;;;;;;;3.20;2.00;;;14.40;99.90;;;;;;6218876;23;20218;-95
2023/07/18 03:48:00;;;;;;;2.73;1.70;;;14.40;99.90;;;;;;6218663;23;20180;-94
2023/07/18 03:50:27;;;;;;;3.63;1.90;;;14.40;1.00;;;;;;6220183;23;20231;-95
2023/07/18 03:52:54;;;;;;;5.00;2.20;;;14.50;1.00;;;;;;6221033;23;20226;-96
2023/07/18 03:55:21;;;;;;;3.50;1.90;;;14.50;1.00;;;;;;6220022;23;20173;-95
2023/07/18 03:57:50;;;;;;;4.77;2.40;;;14.60;1.00;;;;;;6219678;23;20180;-95
2023/07/18 04:00:19;;;;;;;2.90;2.20;;;14.60;1.00;;;;;;6219791;23;20227;-95
2023/07/18 04:02:46;;;;;;;3.47;2.07;;;14.70;1.00;;;;;;6220327;23;20199;-94
2023/07/18 04:05:14;;;;;;;3.97;2.07;;;15.10;1.00;;;;;;6223720;23;20642;-96
2023/07/18 04:07:43;;;;;;;5.90;2.00;;;15.90;1.00;;;;;;6225148;23;20231;-96
2023/07/18 04:10:12;;;;;;;4.00;1.90;;;16.80;99.90;;;;;;6227862;23;20251;-95
2023/07/18 04:12:39;;;;;;;3.08;1.88;;;17.60;1.00;;;;;;6227511;23;20172;-96
2023/07/18 04:15:09;;;;;;;5.25;1.90;;;18.30;1.00;;;;;;6227879;23;20220;-96
2023/07/18 04:20:13;;;;;;;3.08;1.65;;;19.40;99.90;;;;;;6234330;23;20196;-95
2023/07/18 04:22:40;;;;;;;3.65;1.40;;;19.80;1.00;;;;;;6230026;23;20225;-95
2023/07/18 04:25:07;;;;;;;3.90;1.90;;;20.20;1.00;;;;;;6230905;23;20172;-96
2023/07/18 04:27:35;;;;;;;3.05;1.70;;;20.60;1.00;;;;;;6229638;23;20176;-96
2023/07/18 04:30:01;;;;;;;4.80;1.70;;;20.80;1.00;;;;;;6240141;23;20153;-96
2023/07/18 04:32:30;;;;;;;2.63;1.58;;;21.20;1.00;;;;;;6242751;23;20157;-96
2023/07/18 04:34:57;;;;;;;4.00;1.98;;;21.40;1.00;;;;;;6242494;23;20153;-96
2023/07/18 04:37:28;;;;;;;3.55;1.45;;;21.70;1.00;;;;;;6242852;23;20169;-96
2023/07/18 04:39:58;;;;;;;2.65;1.35;;;21.90;1.00;;;;;;6241767;23;20162;-96
2023/07/18 04:42:25;;;;;;;9.50;4.47;;;22.10;1.00;;;;;;6235949;23;20193;-96
2023/07/18 04:44:52;;;;;;;1.75;1.23;;;22.20;1.00;;;;;;6238658;23;20200;-96
2023/07/18 04:47:20;;;;;;;3.10;1.65;;;22.40;1.00;;;;;;6236127;23;20180;-95
2023/07/18 04:49:48;;;;;;;2.03;1.52;;;22.60;99.90;;;;;;6226374;23;20200;-95
2023/07/18 04:52:18;;;;;;;2.22;1.60;;;22.80;99.90;;;;;;6224726;23;20169;-96
2023/07/18 04:54:45;;;;;;;3.58;1.40;;;23.00;99.90;;;;;;6228337;23;20169;-95
2023/07/18 04:57:12;;;;;;;2.30;1.60;;;23.20;99.90;;;;;;6220911;23;20212;-94
2023/07/18 04:59:39;;;;;;;4.32;1.50;;;23.20;99.90;;;;;;6225064;23;20229;-96
2023/07/18 05:02:05;;;;;;;2.97;1.60;;;23.30;99.90;;;;;;6225931;23;20181;-96
2023/07/18 05:04:32;;;;;;;2.78;1.80;;;22.90;99.90;;;;;;6226709;23;20224;-96
2023/07/18 05:07:01;;;;;;;5.82;2.88;;;22.30;99.90;;;;;;6225203;23;20173;-96
2023/07/18 05:09:28;;;;;;;5.80;3.67;;;21.80;99.90;;;;;;6235766;23;20173;-95
2023/07/18 05:11:55;;;;;;;5.57;2.33;;;21.40;99.90;;;;;;6226650;23;20177;-96
2023/07/18 05:14:22;;;;;;;9.85;5.22;;;21.00;99.90;;;;;;6224364;23;20228;-96
2023/07/18 05:16:49;;;;;;;11.07;5.65;;;20.60;99.90;;;;;;6224735;23;20635;-95
2023/07/18 05:19:16;;;;;;;7.18;3.47;;;20.20;99.90;;;;;;6217734;23;20244;-95
2023/07/18 05:21:44;;;;;;;4.70;3.17;;;19.90;99.90;;;;;;6218756;23;20180;-93
2023/07/18 05:24:12;;;;;;;3.95;2.22;;;19.70;99.90;;;;;;6218355;23;20271;-94
2023/07/18 05:26:39;;;;;;;4.57;2.30;;;19.50;99.90;;;;;;6218347;23;20201;-93
2023/07/18 05:29:06;;;;;;;4.95;3.00;;;19.30;99.90;;;;;;6218362;23;20228;-94
2023/07/18 05:31:32;;;;;;;3.40;2.35;;;19.20;1.00;;;;;;6218087;23;20192;-93
2023/07/18 05:33:59;;;;;;;6.50;2.58;;;19.20;1.00;;;;;;6218544;23;20165;-95
2023/07/18 05:36:26;;;;;;;4.32;2.50;;;19.10;1.00;;;;;;6218211;23;20275;-94
2023/07/18 05:38:53;;;;;;;4.32;2.22;;;19.00;1.00;;;;;;6218440;23;20558;-94
2023/07/18 05:41:21;;;;;;;5.95;2.78;;;19.00;1.00;;;;;;6217923;23;20168;-94
2023/07/18 05:43:48;;;;;;;3.13;2.10;;;19.00;1.00;;;;;;6217993;23;20191;-94
2023/07/18 05:46:15;;;;;;;6.38;3.25;;;19.00;1.00;;;;;;6218211;23;20203;-95
2023/07/18 05:48:41;;;;;;;9.32;4.53;;;19.00;1.00;;;;;;6217569;23;20220;-93
2023/07/18 05:51:08;;;;;;;7.07;3.50;;;18.90;1.00;;;;;;6218437;23;20169;-93
2023/07/18 05:53:35;;;;;;;5.45;2.10;;;18.90;1.00;;;;;;6218235;23;20612;-94
2023/07/18 05:56:02;;;;;;;6.00;3.20;;;18.90;1.00;;;;;;6218414;23;20165;-93
2023/07/18 05:58:30;;;;;;;12.68;6.63;;;18.90;1.00;;;;;;6218102;23;20241;-94
2023/07/18 06:00:57;;;;;;;8.35;4.07;;;18.90;1.00;;;;;;6218114;23;20165;-91
2023/07/18 06:03:24;;;;;;;5.22;3.28;;;18.90;1.00;;;;;;6218084;23;20264;-94
2023/07/18 06:05:54;;;;;;;6.97;4.25;;;18.90;1.00;;;;;;6218036;23;20252;-93
2023/07/18 06:08:22;;;;;;;13.43;5.78;;;18.90;1.00;;;;;;6218326;23;20161;-94
2023/07/18 06:10:49;;;;;;;10.27;4.90;;;18.90;1.00;;;;;;6217497;23;20173;-94
2023/07/18 06:13:16;;;;;;;7.50;3.75;;;18.90;1.00;;;;;;6217649;23;20563;-95
2023/07/18 06:15:44;;;;;;;7.68;2.80;;;19.00;1.00;;;;;;6217738;23;20245;-94
2023/07/18 06:18:11;;;;;;;12.50;4.78;;;19.10;1.00;;;;;;6217877;23;20196;-94
2023/07/18 06:20:41;;;;;;;5.45;3.25;;;19.10;1.00;;;;;;6218067;23;20145;-93
2023/07/18 06:23:08;;;;;;;8.68;3.30;;;19.20;1.00;;;;;;6217726;23;20173;-95
2023/07/18 06:25:35;;;;;;;8.20;4.22;;;19.30;1.00;;;;;;6218091;23;20209;-93
2023/07/18 06:28:03;;;;;;;10.10;3.90;;;19.40;1.00;;;;;;6218430;23;20505;-94
2023/07/18 06:30:31;;;;;;;7.47;3.47;;;19.40;1.00;;;;;;6217389;23;20173;-94
2023/07/18 06:32:59;;;;;;;7.68;3.85;;;19.40;1.00;;;;;;6217746;23;20169;-93
2023/07/18 06:35:26;;;;;;;7.10;3.25;;;19.40;1.00;;;;;;6217783;23;20169;-94
2023/07/18 06:37:54;;;;;;;8.98;4.45;;;19.50;1.00;;;;;;6217782;23;20240;-94
2023/07/18 06:40:21;;;;;;;6.25;3.28;;;19.60;1.00;;;;;;6217384;23;20176;-94
2023/07/18 06:42:47;;;;;;;7.63;3.20;;;19.80;1.00;;;;;;6217641;23;20188;-94
2023/07/18 06:45:14;;;;;;;9.00;4.78;;;19.90;1.00;;;;;;6217283;23;20244;-94
2023/07/18 06:47:41;;;;;;;3.70;2.20;;;19.90;1.00;;;;;;6217505;23;20175;-93
2023/07/18 06:50:11;;;;;;;9.73;4.70;;;20.00;1.00;;;;;;6217463;23;20200;-94
2023/07/18 06:52:38;;;;;;;5.57;2.60;;;20.10;1.00;;;;;;6217459;23;20184;-94
2023/07/18 06:55:10;;;;;;;15.60;7.22;;;20.30;1.00;;;;;;6217713;23;20168;-93
2023/07/18 06:57:37;;;;;;;9.63;3.95;;;20.40;1.00;;;;;;6217267;23;20309;-94
2023/07/18 07:00:06;;;;;;;5.60;2.30;;;20.50;1.00;;;;;;6217381;23;20240;-94
2023/07/18 07:02:33;;;;;;;12.50;6.82;;;20.60;1.00;;;;;;6217466;23;20507;-95
2023/07/18 07:04:59;;;;;;;11.70;6.60;;;20.70;1.00;;;;;;6217574;23;20199;-93
2023/07/18 07:07:28;;;;;;;6.78;2.35;;;20.80;1.00;;;;;;6217509;23;20171;-93
2023/07/18 07:09:55;;;;;;;12.68;4.80;;;20.90;1.00;;;;;;6217256;23;20169;-93
2023/07/18 07:12:21;;;;;;;22.77;10.98;;;21.10;1.00;;;;;;6217584;23;20236;-95
2023/07/18 07:14:48;;;;;;;28.13;11.30;;;21.20;1.00;;;;;;6217289;23;20500;-95
2023/07/18 07:17:15;;;;;;;32.03;11.63;;;21.20;99.90;;;;;;6216833;23;20239;-94
2023/07/18 07:19:42;;;;;;;8.98;4.88;;;21.20;99.90;;;;;;6216762;23;20198;-95
2023/07/18 07:22:11;;;;;;;10.45;5.32;;;21.20;99.90;;;;;;6217290;23;20169;-94
2023/07/18 07:24:39;;;;;;;18.02;10.48;;;21.20;99.90;;;;;;6217462;23;20220;-95
2023/07/18 07:27:07;;;;;;;46.38;30.65;;;21.20;99.90;;;;;;6217075;23;20200;-95
2023/07/18 07:29:34;;;;;;;24.38;15.93;;;21.20;99.90;;;;;;6217007;23;20173;-95
2023/07/18 07:32:01;;;;;;;18.60;10.38;;;21.20;99.90;;;;;;6217494;23;20173;-96
2023/07/18 07:34:29;;;;;;;19.42;10.10;;;21.10;99.90;;;;;;6217038;23;20240;-94
2023/07/18 07:36:56;;;;;;;10.88;5.45;;;21.20;99.90;;;;;;6217330;23;20169;-94
2023/07/18 07:39:23;;;;;;;13.82;5.85;;;21.30;99.90;;;;;;6217227;23;20169;-94
2023/07/18 07:41:51;;;;;;;30.52;15.68;;;21.30;99.90;;;;;;6217128;23;20228;-94
2023/07/18 07:44:18;;;;;;;14.27;7.15;;;21.40;99.90;;;;;;6217005;23;20195;-95
2023/07/18 07:46:45;;;;;;;6.30;2.53;;;21.50;99.90;;;;;;6216868;23;20220;-94
2023/07/18 07:49:12;;;;;;;30.30;10.27;;;21.70;99.90;;;;;;6216742;23;20155;-93
2023/07/18 07:51:38;;;;;;;4.75;2.50;;;21.90;99.90;;;;;;6217223;23;20252;-94
2023/07/18 07:54:05;;;;;;;15.23;7.90;;;22.10;99.90;;;;;;6216557;23;20252;-93
2023/07/18 07:56:32;;;;;;;5.45;3.03;;;22.10;99.90;;;;;;6216884;23;20222;-94
2023/07/18 07:59:00;;;;;;;10.48;5.85;;;22.10;99.90;;;;;;6216843;23;20615;-93
2023/07/18 08:01:27;;;;;;;8.95;4.78;;;22.00;99.90;;;;;;6217051;23;20176;-93
2023/07/18 08:03:54;;;;;;;12.05;5.18;;;22.10;99.90;;;;;;6216307;23;20185;-94
2023/07/18 08:06:21;;;;;;;17.73;7.65;;;22.10;99.90;;;;;;6216984;23;20245;-94
2023/07/18 08:08:49;;;;;;;9.02;3.90;;;21.90;99.90;;;;;;6216947;23;20173;-94
2023/07/18 08:11:15;;;;;;;6.30;2.80;;;21.90;99.90;;;;;;6218096;23;20173;-95
2023/07/18 08:13:42;;;;;;;6.32;2.80;;;22.10;99.90;;;;;;6218890;23;20244;-94
2023/07/18 08:16:10;;;;;;;3.60;1.73;;;22.20;99.90;;;;;;6218887;23;20244;-94
2023/07/18 08:18:37;;;;;;;5.93;3.15;;;22.30;99.90;;;;;;6218938;23;20204;-95
2023/07/18 08:21:04;;;;;;;6.88;3.10;;;22.60;99.90;;;;;;6218911;23;20196;-94
2023/07/18 08:23:31;;;;;;;4.53;2.22;;;22.90;99.90;;;;;;6218773;23;20726;-95
2023/07/18 08:25:58;;;;;;;7.10;4.25;;;23.10;99.90;;;;;;6219149;23;20256;-94
2023/07/18 08:28:25;;;;;;;5.25;2.47;;;23.10;99.90;;;;;;6218454;23;20235;-93
2023/07/18 08:30:52;;;;;;;5.93;3.22;;;23.10;99.90;;;;;;6218434;23;20179;-93
2023/07/18 08:33:21;;;;;;;6.00;3.42;;;22.90;99.90;;;;;;6219114;23;20175;-93
2023/07/18 08:35:50;;;;;;;5.50;3.00;;;22.90;99.90;;;;;;6218756;23;20175;-92
2023/07/18 08:38:17;;;;;;;5.15;2.60;;;22.90;99.90;;;;;;6219074;23;20173;-94
2023/07/18 08:40:44;;;;;;;5.28;2.80;;;22.80;99.90;;;;;;6218494;23;20173;-93
2023/07/18 08:43:14;;;;;;;6.07;2.60;;;22.70;99.90;;;;;;6218755;23;20173;-93
2023/07/18 08:45:41;;;;;;;6.78;3.03;;;22.70;99.90;;;;;;6218257;23;20175;-92
2023/07/18 08:48:08;;;;;;;3.25;2.38;;;22.90;99.90;;;;;;6218811;23;20180;-92
2023/07/18 08:50:39;;;;;;;3.20;1.30;;;23.20;99.90;;;;;;6218600;23;20252;-93
2023/07/18 08:53:06;;;;;;;6.55;2.15;;;23.40;99.90;;;;;;6218533;23;20185;-91
2023/07/18 08:55:32;;;;;;;3.53;1.80;;;23.50;99.90;;;;;;6218417;23;20184;-93
2023/07/18 08:58:00;;;;;;;3.15;1.58;;;23.50;99.90;;;;;;6218649;23;20169;-93
2023/07/18 09:00:28;;;;;;;3.08;1.45;;;23.60;99.90;;;;;;6218624;23;20628;-92
2023/07/18 09:02:55;;;;;;;3.83;1.40;;;23.90;99.90;;;;;;6218726;23;20200;-93
2023/07/18 09:05:32;;;;;;;2.65;1.38;;;24.10;99.90;;;;;;6218406;23;20245;-93
2023/07/18 09:08:02;;;;;;;4.90;1.60;;;24.30;99.90;;;;;;6218463;23;20272;-93
2023/07/18 09:10:29;;;;;;;3.50;1.70;;;24.50;99.90;;;;;;6218786;23;20240;-92
2023/07/18 09:13:00;;;;;;;3.55;1.50;;;24.60;99.90;;;;;;6218054;23;20188;-94
2023/07/18 09:15:27;;;;;;;3.65;1.30;;;24.40;99.90;;;;;;6218371;23;20185;-94
2023/07/18 09:17:59;;;;;;;2.42;1.40;;;24.20;99.90;;;;;;6218205;23;20200;-93
2023/07/18 09:20:27;;;;;;;4.55;1.60;;;24.20;99.90;;;;;;6218708;23;20252;-94
2023/07/18 09:22:56;;;;;;;2.53;1.40;;;24.10;99.90;;;;;;6217494;23;20192;-93
2023/07/18 09:25:25;;;;;;;2.20;1.60;;;24.00;99.90;;;;;;6217915;23;20651;-93
2023/07/18 09:27:52;;;;;;;3.40;1.58;;;24.00;99.90;;;;;;6218135;23;20224;-93
2023/07/18 09:30:23;;;;;;;2.78;1.50;;;24.00;99.90;;;;;;6217724;23;20169;-94
2023/07/18 09:32:51;;;;;;;4.40;1.20;;;24.00;99.90;;;;;;6218026;23;20156;-93
2023/07/18 09:35:18;;;;;;;2.50;1.40;;;24.30;99.90;;;;;;6217765;23;20169;-93
2023/07/18 09:37:46;;;;;;;2.60;1.20;;;24.70;99.90;;;;;;6217620;23;20173;-93
2023/07/18 09:40:16;;;;;;;2.95;1.55;;;25.00;99.90;;;;;;6217392;23;20577;-93
2023/07/18 09:42:45;;;;;;;2.03;1.30;;;24.80;99.90;;;;;;6217924;23;20179;-92
2023/07/18 09:45:13;;;;;;;3.25;1.27;;;24.50;99.90;;;;;;6217886;23;20554;-93
2023/07/18 09:47:41;;;;;;;2.80;1.33;;;24.70;99.90;;;;;;6217484;23;20678;-93
2023/07/18 09:50:08;;;;;;;3.50;1.38;;;24.90;99.90;;;;;;6217910;23;20177;-94
2023/07/18 09:52:39;;;;;;;2.42;1.30;;;25.00;99.90;;;;;;6217640;23;20196;-93
2023/07/18 09:55:09;;;;;;;3.30;1.20;;;25.00;99.90;;;;;;6217996;23;20164;-93
2023/07/18 09:57:40;;;;;;;2.70;1.40;;;25.00;99.90;;;;;;6218534;23;20165;-92
2023/07/18 10:00:11;;;;;;;2.55;1.50;;;25.30;99.90;;;;;;6218172;23;20232;-93
2023/07/18 10:02:39;;;;;;;5.35;1.38;;;25.70;99.90;;;;;;6217658;23;20207;-93
2023/07/18 10:05:09;;;;;;;2.72;1.30;;;25.90;99.90;;;;;;6217796;23;20228;-93
2023/07/18 10:07:37;;;;;;;2.30;1.20;;;26.00;99.90;;;;;;6218353;23;20231;-93
2023/07/18 10:10:08;;;;;;;4.22;1.15;;;26.10;99.90;;;;;;6218133;23;20248;-93
2023/07/18 10:12:39;;;;;;;2.08;1.30;;;26.20;99.90;;;;;;6217794;23;20177;-93
2023/07/18 10:15:07;;;;;;;2.70;1.20;;;26.20;99.90;;;;;;6218330;23;20612;-92
2023/07/18 10:17:37;;;;;;;2.65;1.40;;;26.20;99.90;;;;;;6217459;23;20169;-94
2023/07/18 10:20:18;;;;;;;1.95;1.20;;;26.30;99.90;;;;;;6217841;23;20189;-92
2023/07/18 10:22:50;;;;;;;2.08;1.10;;;26.60;99.90;;;;;;6218034;23;20161;-93
2023/07/18 10:25:19;;;;;;;2.13;1.15;;;26.90;99.90;;;;;;6217416;23;20224;-93
2023/07/18 10:27:48;;;;;;;2.15;1.30;;;27.10;99.90;;;;;;6217852;23;20533;-94
2023/07/18 10:30:18;;;;;;;1.88;1.05;;;27.40;99.90;;;;;;6217656;23;20499;-94
2023/07/18 10:32:52;;;;;;;3.63;1.15;;;27.60;99.90;;;;;;6218133;23;20201;-93
2023/07/18 10:35:21;;;;;;;4.20;1.27;;;27.70;99.90;;;;;;6217964;23;20477;-93
2023/07/18 10:37:52;;;;;;;2.25;1.27;;;27.70;99.90;;;;;;6217101;23;20264;-94
2023/07/18 10:40:35;;;;;;;4.10;1.10;;;27.70;99.90;;;;;;6217484;23;20167;-93
2023/07/18 10:43:02;;;;;;;2.60;1.40;;;27.50;99.90;;;;;;6217976;23;20232;-92
2023/07/18 10:45:36;;;;;;;2.88;1.05;;;27.20;97.60;;;;;;6217710;23;20268;-93
2023/07/18 10:48:13;;;;;;;2.85;1.30;;;26.70;98.40;;;;;;6218016;23;20164;-93
2023/07/18 10:50:40;;;;;;;3.47;1.38;;;26.30;99.30;;;;;;6217425;23;20495;-93
2023/07/18 10:53:11;;;;;;;3.17;1.30;;;26.20;96.20;;;;;;6217950;23;20179;-93
2023/07/18 10:55:38;;;;;;;2.08;1.25;;;25.90;96.20;;;;;;6217922;23;20156;-93
2023/07/18 10:58:10;;;;;;;3.10;1.10;;;25.90;95.00;;;;;;6217883;23;20257;-94
2023/07/18 11:00:39;;;;;;;2.47;1.30;;;26.00;96.60;;;;;;6217531;23;20160;-93
2023/07/18 11:03:06;;;;;;;2.78;1.33;;;26.30;97.10;;;;;;6217565;23;20169;-93
2023/07/18 11:05:33;;;;;;;2.83;1.13;;;26.30;94.60;;;;;;6217440;23;20276;-92
2023/07/18 11:08:00;;;;;;;3.33;1.33;;;26.20;92.30;;;;;;6217508;23;20176;-93
2023/07/18 11:10:27;;;;;;;4.10;1.40;;;26.20;95.40;;;;;;6217121;23;20215;-93
2023/07/18 11:12:54;;;;;;;2.47;1.38;;;26.10;89.70;;;;;;6217615;23;20204;-93
2023/07/18 11:15:21;;;;;;;2.30;1.38;;;25.80;85.70;;;;;;6217471;23;20203;-93
2023/07/18 11:17:50;;;;;;;2.22;1.63;;;25.50;89.90;;;;;;6217025;23;20161;-93
2023/07/18 11:20:17;;;;;;;2.15;1.50;;;25.40;92.60;;;;;;6217493;23;20169;-93
2023/07/18 11:22:44;;;;;;;3.15;1.45;;;25.60;92.50;;;;;;6216826;23;20240;-94
2023/07/18 11:25:11;;;;;;;2.20;1.10;;;25.90;92.90;;;;;;6217128;23;20208;-93
2023/07/18 11:27:38;;;;;;;1.83;1.10;;;26.20;92.40;;;;;;6217775;23;20180;-93
2023/07/18 11:30:08;;;;;;;1.63;1.20;;;26.40;90.80;;;;;;6217448;23;20173;-93
2023/07/18 11:32:39;;;;;;;1.92;1.13;;;26.50;91.10;;;;;;6217239;23;20196;-94
2023/07/18 11:35:09;;;;;;;2.17;1.10;;;26.50;99.90;;;;;;6217132;23;20192;-93
2023/07/18 11:37:38;;;;;;;3.13;1.17;;;26.50;90.10;;;;;;6217923;23;20173;-94
2023/07/18 11:40:06;;;;;;;1.98;1.15;;;26.40;90.50;;;;;;6217406;23;20201;-93
2023/07/18 11:42:49;;;;;;;2.90;1.40;;;26.40;91.90;;;;;;6217211;23;20204;-93
2023/07/18 11:45:18;;;;;;;2.20;1.10;;;26.40;91.90;;;;;;6216555;23;20191;-94
2023/07/18 11:47:45;;;;;;;1.45;1.10;;;26.60;90.40;;;;;;6216514;23;20173;-93
2023/07/18 11:50:14;;;;;;;2.00;1.30;;;26.50;85.00;;;;;;6217150;23;20694;-93
2023/07/18 11:52:42;;;;;;;2.05;1.33;;;26.30;82.30;;;;;;6217010;23;20173;-93
2023/07/18 11:55:09;;;;;;;2.45;1.30;;;26.20;80.10;;;;;;6217221;23;20165;-93
2023/07/18 11:57:36;;;;;;;1.50;1.00;;;26.00;77.00;;;;;;6217326;23;20500;-93
2023/07/18 12:00:04;;;;;;;2.65;1.33;;;25.90;76.20;;;;;;6216672;23;20211;-93
2023/07/18 12:02:31;;;;;;;1.25;1.00;;;26.10;78.50;;;;;;6217239;23;20208;-93
2023/07/18 12:04:58;;;;;;;2.92;1.60;;;26.20;78.70;;;;;;6216445;23;20184;-93
2023/07/18 12:07:26;;;;;;;2.90;1.10;;;26.60;77.80;;;;;;6217099;23;20203;-94
2023/07/18 12:09:54;;;;;;;2.05;1.20;;;26.80;73.20;;;;;;6217437;23;20252;-93
2023/07/18 12:12:21;;;;;;;2.00;1.23;;;27.00;79.70;;;;;;6216795;23;20188;-92
2023/07/18 12:14:48;;;;;;;3.08;1.23;;;27.30;75.60;;;;;;6217025;23;20219;-94
2023/07/18 12:17:15;;;;;;;2.40;1.00;;;27.30;70.00;;;;;;6216730;23;20245;-93
2023/07/18 12:19:42;;;;;;;2.88;1.15;;;27.10;63.50;;;;;;6216521;23;20243;-93
2023/07/18 12:22:09;;;;;;;1.20;1.00;;;26.90;68.40;;;;;;6217095;23;20191;-93
2023/07/18 12:24:37;;;;;;;2.67;1.10;;;26.70;67.70;;;;;;6217160;23;20244;-94
2023/07/18 12:27:04;;;;;;;2.75;1.15;;;26.60;61.70;;;;;;6217039;23;20615;-93
2023/07/18 12:29:31;;;;;;;2.70;1.30;;;26.60;66.50;;;;;;6216641;23;20173;-95
2023/07/18 12:31:58;;;;;;;1.40;0.93;;;26.70;66.00;;;;;;6217213;23;20332;-94
2023/07/18 12:34:27;;;;;;;2.03;1.05;;;26.80;65.70;;;;;;6216971;23;20252;-93
2023/07/18 12:36:54;;;;;;;4.68;1.15;;;26.90;68.30;;;;;;6216813;23;20175;-94
2023/07/18 12:39:21;;;;;;;3.28;1.40;;;27.00;65.80;;;;;;6217036;23;20173;-93
2023/07/18 12:41:50;;;;;;;3.67;1.23;;;27.10;66.20;;;;;;6217092;23;20172;-93
2023/07/18 12:44:19;;;;;;;2.75;1.30;;;27.40;66.40;;;;;;6217046;23;20256;-94
2023/07/18 12:46:46;;;;;;;3.03;1.35;;;27.50;64.80;;;;;;6217086;23;20197;-93
2023/07/18 12:49:13;;;;;;;2.58;1.38;;;27.60;90.30;;;;;;6216867;23;20173;-93
2023/07/18 12:51:40;;;;;;;5.30;1.33;;;27.70;61.00;;;;;;6216474;23;20168;-93
2023/07/18 12:54:07;;;;;;;3.65;1.60;;;27.70;57.40;;;;;;6216764;23;20193;-94
2023/07/18 12:56:34;;;;;;;2.75;1.23;;;27.50;55.40;;;;;;6216991;23;20201;-93